Etusivu
METAR-TAF:

METAR-TAF

Lentoasemat :

Marshall County Airport

Lacon, Illinois, Yhdysvallat

Leveyspiiri: 41-01-09N, Pituuspiiri: 089-23-11W, korkeus merenpinnasta: 173 m

Tämänhetkinen sää

Tämä raportti tehtiin 32 minuuttia sitten, kello 20.15 UTC
Tuuli 12 kn pohjoisen/luoteesta puuskistuen 18 kn:hen
Lämpötila -1°C
Kosteus 64%
Ilmanpaine 1019 hPa
Näkyvyys: 16.1 km
Pilvistä 3200 ft:n korkeudessa

METAR: KC75 262015Z AUTO 33012G18KT 10SM OVC032 M01/M07 A3010 RMK AO2 T10081066

Aika: 14:47 (20:47 UTC)


TAF: puuttuu

Säähavainnot ja -ennusteet yli 4000 lentoasemalta (METAR- ja TAF-raportit).

Käytössä olevat sääasemat on merkitty karttaan keltaisilla ja punaisilla pisteillä.

Aseta hiiri pisteen päälle nähdäksesi sääaseman nimen.

Klikkaa sitten nähdäksesi säähavainnot ja -ennusteet.

Kartan vaihtaminen: klikkaa mustalla rastilla varustettuja vihreitä pisteitä, niin voit zoomata sisään; viivalla varustettua vihreää pistettä, niin voit zoomata ulos tai vihreitä nuolia, niin pääset viereisille kartoille.


METAR-TAF: